Masonic Park, Colorado
Current Conditions -  °F | °C
As of 4:30 AM on Saturday 20 Dec 2014 (Local Time) from KRCV Reporting Station
Clear Clear  
Wind Chill: -14°   Ceiling: Unl
Heat Index: -10°   Visibility: 10mi
Dew Point: -14°   Wind: 5mph
Humidity: 71%   Direction: 210°SSW
Pressure: 30.15"   Gusts: NA
Location:  37.6617°N, 106.617°W
Report Text: KRCV 201130Z AUTO 21004KT 10SM CLR M10/M14 A3015 RMK AO2 T10961139
Loading
Personal Weather Stations






























Interactive Weather Map New forecast layout! Learn more

10-Day Weather Forecast

Advertisements
Track Severe Weather on mobile